sensor_id;sensor_type;location;lat;lon;timestamp;temperature;humidity
35111;DHT22;21290;50.158;8.658;2023-08-06T00:01:10;15.70;99.90
35111;DHT22;21290;50.158;8.658;2023-08-06T00:03:37;15.70;99.90
35111;DHT22;21290;50.158;8.658;2023-08-06T00:06:07;15.70;99.90
35111;DHT22;21290;50.158;8.658;2023-08-06T00:08:34;15.70;99.90
35111;DHT22;21290;50.158;8.658;2023-08-06T00:11:00;15.70;99.90
35111;DHT22;21290;50.158;8.658;2023-08-06T00:13:27;15.70;99.90
35111;DHT22;21290;50.158;8.658;2023-08-06T00:15:54;15.60;99.90
35111;DHT22;21290;50.158;8.658;2023-08-06T00:18:20;15.70;99.90
35111;DHT22;21290;50.158;8.658;2023-08-06T00:20:47;15.80;99.90
35111;DHT22;21290;50.158;8.658;2023-08-06T00:23:14;15.70;99.90
35111;DHT22;21290;50.158;8.658;2023-08-06T00:25:40;15.80;99.90
35111;DHT22;21290;50.158;8.658;2023-08-06T00:28:07;15.80;99.90
35111;DHT22;21290;50.158;8.658;2023-08-06T00:30:34;15.80;99.90
35111;DHT22;21290;50.158;8.658;2023-08-06T00:33:01;15.80;99.90
35111;DHT22;21290;50.158;8.658;2023-08-06T00:35:27;15.90;99.90
35111;DHT22;21290;50.158;8.658;2023-08-06T00:37:54;15.90;99.90
35111;DHT22;21290;50.158;8.658;2023-08-06T00:40:21;15.90;99.90
35111;DHT22;21290;50.158;8.658;2023-08-06T00:42:50;15.90;99.90
35111;DHT22;21290;50.158;8.658;2023-08-06T00:45:17;15.90;99.90
35111;DHT22;21290;50.158;8.658;2023-08-06T00:47:44;15.90;99.90
35111;DHT22;21290;50.158;8.658;2023-08-06T00:50:12;16.00;99.90
35111;DHT22;21290;50.158;8.658;2023-08-06T00:52:38;16.00;99.90
35111;DHT22;21290;50.158;8.658;2023-08-06T00:55:06;15.90;99.90
35111;DHT22;21290;50.158;8.658;2023-08-06T00:57:33;15.90;99.90
35111;DHT22;21290;50.158;8.658;2023-08-06T01:00:00;15.90;99.90
35111;DHT22;21290;50.158;8.658;2023-08-06T01:02:26;15.90;99.90
35111;DHT22;21290;50.158;8.658;2023-08-06T01:04:53;16.00;99.90
35111;DHT22;21290;50.158;8.658;2023-08-06T01:07:46;16.00;99.90
35111;DHT22;21290;50.158;8.658;2023-08-06T01:10:55;16.10;99.90
35111;DHT22;21290;50.158;8.658;2023-08-06T01:13:33;16.20;99.90
35111;DHT22;21290;50.158;8.658;2023-08-06T01:16:04;16.20;99.90
35111;DHT22;21290;50.158;8.658;2023-08-06T01:18:34;16.20;99.90
35111;DHT22;21290;50.158;8.658;2023-08-06T01:21:01;16.20;99.90
35111;DHT22;21290;50.158;8.658;2023-08-06T01:23:28;16.20;99.90
35111;DHT22;21290;50.158;8.658;2023-08-06T01:26:22;16.20;99.90
35111;DHT22;21290;50.158;8.658;2023-08-06T01:29:15;16.20;99.90
35111;DHT22;21290;50.158;8.658;2023-08-06T01:31:44;16.20;99.90
35111;DHT22;21290;50.158;8.658;2023-08-06T01:34:24;16.20;99.90
35111;DHT22;21290;50.158;8.658;2023-08-06T01:36:52;16.20;99.90
35111;DHT22;21290;50.158;8.658;2023-08-06T01:39:19;16.10;99.90
35111;DHT22;21290;50.158;8.658;2023-08-06T01:41:49;16.10;99.90
35111;DHT22;21290;50.158;8.658;2023-08-06T01:44:16;16.10;99.90
35111;DHT22;21290;50.158;8.658;2023-08-06T01:46:43;16.00;99.90
35111;DHT22;21290;50.158;8.658;2023-08-06T01:49:10;16.10;99.90
35111;DHT22;21290;50.158;8.658;2023-08-06T01:51:36;16.10;99.90
35111;DHT22;21290;50.158;8.658;2023-08-06T01:54:03;16.00;99.90
35111;DHT22;21290;50.158;8.658;2023-08-06T01:56:30;16.00;99.90
35111;DHT22;21290;50.158;8.658;2023-08-06T01:58:56;15.80;99.90
35111;DHT22;21290;50.158;8.658;2023-08-06T02:01:23;15.80;99.90
35111;DHT22;21290;50.158;8.658;2023-08-06T02:03:50;15.80;99.90
35111;DHT22;21290;50.158;8.658;2023-08-06T02:06:16;15.80;99.90
35111;DHT22;21290;50.158;8.658;2023-08-06T02:08:43;15.80;99.90
35111;DHT22;21290;50.158;8.658;2023-08-06T02:11:09;15.80;99.90
35111;DHT22;21290;50.158;8.658;2023-08-06T02:13:36;15.80;99.90
35111;DHT22;21290;50.158;8.658;2023-08-06T02:16:03;15.80;99.90
35111;DHT22;21290;50.158;8.658;2023-08-06T02:18:30;15.70;99.90
35111;DHT22;21290;50.158;8.658;2023-08-06T02:20:57;15.70;99.90
35111;DHT22;21290;50.158;8.658;2023-08-06T02:23:25;15.70;99.90
35111;DHT22;21290;50.158;8.658;2023-08-06T02:25:59;15.60;99.90
35111;DHT22;21290;50.158;8.658;2023-08-06T02:28:26;15.60;99.90
35111;DHT22;21290;50.158;8.658;2023-08-06T02:30:53;15.60;99.90
35111;DHT22;21290;50.158;8.658;2023-08-06T02:33:20;15.60;99.90
35111;DHT22;21290;50.158;8.658;2023-08-06T02:35:46;15.70;99.90
35111;DHT22;21290;50.158;8.658;2023-08-06T02:38:13;15.70;99.90
35111;DHT22;21290;50.158;8.658;2023-08-06T02:40:46;15.70;99.90
35111;DHT22;21290;50.158;8.658;2023-08-06T02:43:13;15.70;99.90
35111;DHT22;21290;50.158;8.658;2023-08-06T02:45:41;15.70;99.90
35111;DHT22;21290;50.158;8.658;2023-08-06T02:48:07;15.70;99.90
35111;DHT22;21290;50.158;8.658;2023-08-06T02:50:41;15.70;99.90
35111;DHT22;21290;50.158;8.658;2023-08-06T02:53:08;15.70;99.90
35111;DHT22;21290;50.158;8.658;2023-08-06T02:55:35;15.70;99.90
35111;DHT22;21290;50.158;8.658;2023-08-06T02:58:02;15.70;99.90
35111;DHT22;21290;50.158;8.658;2023-08-06T03:00:29;15.70;99.90
35111;DHT22;21290;50.158;8.658;2023-08-06T03:02:56;15.70;99.90
35111;DHT22;21290;50.158;8.658;2023-08-06T03:05:23;15.70;99.90
35111;DHT22;21290;50.158;8.658;2023-08-06T03:07:49;15.70;99.90
35111;DHT22;21290;50.158;8.658;2023-08-06T03:10:16;15.70;99.90
35111;DHT22;21290;50.158;8.658;2023-08-06T03:12:43;15.70;99.90
35111;DHT22;21290;50.158;8.658;2023-08-06T03:15:10;15.80;99.90
35111;DHT22;21290;50.158;8.658;2023-08-06T03:17:36;15.80;99.90
35111;DHT22;21290;50.158;8.658;2023-08-06T03:20:03;15.80;99.90
35111;DHT22;21290;50.158;8.658;2023-08-06T03:22:30;15.80;99.90
35111;DHT22;21290;50.158;8.658;2023-08-06T03:24:57;15.80;99.90
35111;DHT22;21290;50.158;8.658;2023-08-06T03:27:24;15.80;99.90
35111;DHT22;21290;50.158;8.658;2023-08-06T03:29:50;15.80;99.90
35111;DHT22;21290;50.158;8.658;2023-08-06T03:32:17;15.80;99.90
35111;DHT22;21290;50.158;8.658;2023-08-06T03:34:44;15.70;99.90
35111;DHT22;21290;50.158;8.658;2023-08-06T03:37:10;15.70;99.90
35111;DHT22;21290;50.158;8.658;2023-08-06T03:39:37;15.70;99.90
35111;DHT22;21290;50.158;8.658;2023-08-06T03:42:04;15.60;99.90
35111;DHT22;21290;50.158;8.658;2023-08-06T03:44:31;15.60;99.90
35111;DHT22;21290;50.158;8.658;2023-08-06T03:46:58;15.60;99.90
35111;DHT22;21290;50.158;8.658;2023-08-06T03:49:24;15.60;99.90
35111;DHT22;21290;50.158;8.658;2023-08-06T03:51:51;15.60;99.90
35111;DHT22;21290;50.158;8.658;2023-08-06T03:54:18;15.60;99.90
35111;DHT22;21290;50.158;8.658;2023-08-06T03:56:45;15.60;99.90
35111;DHT22;21290;50.158;8.658;2023-08-06T03:59:11;15.60;99.90
35111;DHT22;21290;50.158;8.658;2023-08-06T04:01:38;15.70;99.90
35111;DHT22;21290;50.158;8.658;2023-08-06T04:04:05;15.70;99.90
35111;DHT22;21290;50.158;8.658;2023-08-06T04:06:31;15.70;99.90
35111;DHT22;21290;50.158;8.658;2023-08-06T04:08:58;15.70;99.90
35111;DHT22;21290;50.158;8.658;2023-08-06T04:11:25;15.70;99.90
35111;DHT22;21290;50.158;8.658;2023-08-06T04:13:51;15.70;99.90
35111;DHT22;21290;50.158;8.658;2023-08-06T04:16:18;15.60;99.90
35111;DHT22;21290;50.158;8.658;2023-08-06T04:18:45;15.60;99.90
35111;DHT22;21290;50.158;8.658;2023-08-06T04:21:12;15.60;99.90
35111;DHT22;21290;50.158;8.658;2023-08-06T04:23:39;15.60;99.90
35111;DHT22;21290;50.158;8.658;2023-08-06T04:26:05;15.60;99.90
35111;DHT22;21290;50.158;8.658;2023-08-06T04:28:32;15.60;99.90
35111;DHT22;21290;50.158;8.658;2023-08-06T04:30:59;15.50;99.90
35111;DHT22;21290;50.158;8.658;2023-08-06T04:33:26;15.50;99.90
35111;DHT22;21290;50.158;8.658;2023-08-06T04:35:56;15.50;99.90
35111;DHT22;21290;50.158;8.658;2023-08-06T04:38:26;15.50;99.90
35111;DHT22;21290;50.158;8.658;2023-08-06T04:40:53;15.50;99.90
35111;DHT22;21290;50.158;8.658;2023-08-06T04:43:19;15.60;99.90
35111;DHT22;21290;50.158;8.658;2023-08-06T04:45:50;15.50;99.90
35111;DHT22;21290;50.158;8.658;2023-08-06T04:48:17;15.60;99.90
35111;DHT22;21290;50.158;8.658;2023-08-06T04:50:47;15.60;99.90
35111;DHT22;21290;50.158;8.658;2023-08-06T04:53:16;15.60;99.90
35111;DHT22;21290;50.158;8.658;2023-08-06T04:55:42;15.60;99.90
35111;DHT22;21290;50.158;8.658;2023-08-06T04:58:10;15.70;99.90
35111;DHT22;21290;50.158;8.658;2023-08-06T05:00:37;15.70;99.90
35111;DHT22;21290;50.158;8.658;2023-08-06T05:03:04;15.70;99.90
35111;DHT22;21290;50.158;8.658;2023-08-06T05:05:31;15.60;99.90
35111;DHT22;21290;50.158;8.658;2023-08-06T05:07:57;15.60;99.90
35111;DHT22;21290;50.158;8.658;2023-08-06T05:10:25;15.60;99.90
35111;DHT22;21290;50.158;8.658;2023-08-06T05:12:52;15.60;99.90
35111;DHT22;21290;50.158;8.658;2023-08-06T05:15:19;15.50;99.90
35111;DHT22;21290;50.158;8.658;2023-08-06T05:17:46;15.30;99.90
35111;DHT22;21290;50.158;8.658;2023-08-06T05:20:13;15.10;99.90
35111;DHT22;21290;50.158;8.658;2023-08-06T05:22:39;15.00;99.90
35111;DHT22;21290;50.158;8.658;2023-08-06T05:25:06;14.90;99.90
35111;DHT22;21290;50.158;8.658;2023-08-06T05:27:33;14.80;99.90
35111;DHT22;21290;50.158;8.658;2023-08-06T05:30:00;14.80;99.90
35111;DHT22;21290;50.158;8.658;2023-08-06T05:32:27;14.70;99.90
35111;DHT22;21290;50.158;8.658;2023-08-06T05:34:53;14.70;99.90
35111;DHT22;21290;50.158;8.658;2023-08-06T05:37:20;14.70;99.90
35111;DHT22;21290;50.158;8.658;2023-08-06T05:39:47;14.70;99.90
35111;DHT22;21290;50.158;8.658;2023-08-06T05:42:13;14.70;99.90
35111;DHT22;21290;50.158;8.658;2023-08-06T05:44:40;14.70;99.90
35111;DHT22;21290;50.158;8.658;2023-08-06T05:47:07;14.70;99.90
35111;DHT22;21290;50.158;8.658;2023-08-06T05:49:33;14.70;99.90
35111;DHT22;21290;50.158;8.658;2023-08-06T05:52:00;14.70;99.90
35111;DHT22;21290;50.158;8.658;2023-08-06T05:54:27;14.70;99.90
35111;DHT22;21290;50.158;8.658;2023-08-06T05:56:53;14.80;99.90
35111;DHT22;21290;50.158;8.658;2023-08-06T05:59:20;14.80;99.90
35111;DHT22;21290;50.158;8.658;2023-08-06T06:01:47;14.80;99.90
35111;DHT22;21290;50.158;8.658;2023-08-06T06:04:13;14.80;99.90
35111;DHT22;21290;50.158;8.658;2023-08-06T06:06:40;14.80;99.90
35111;DHT22;21290;50.158;8.658;2023-08-06T06:09:08;14.90;99.90
35111;DHT22;21290;50.158;8.658;2023-08-06T06:11:34;14.80;99.90
35111;DHT22;21290;50.158;8.658;2023-08-06T06:14:01;14.80;99.90
35111;DHT22;21290;50.158;8.658;2023-08-06T06:16:28;14.80;99.90
35111;DHT22;21290;50.158;8.658;2023-08-06T06:18:54;14.80;99.90
35111;DHT22;21290;50.158;8.658;2023-08-06T06:21:22;14.90;99.90
35111;DHT22;21290;50.158;8.658;2023-08-06T06:23:49;14.90;99.90
35111;DHT22;21290;50.158;8.658;2023-08-06T06:26:18;14.90;99.90
35111;DHT22;21290;50.158;8.658;2023-08-06T06:28:45;15.00;99.90
35111;DHT22;21290;50.158;8.658;2023-08-06T06:31:12;15.10;99.90
35111;DHT22;21290;50.158;8.658;2023-08-06T06:33:38;15.10;99.90
35111;DHT22;21290;50.158;8.658;2023-08-06T06:36:05;15.10;99.90
35111;DHT22;21290;50.158;8.658;2023-08-06T06:38:34;15.20;99.90
35111;DHT22;21290;50.158;8.658;2023-08-06T06:41:00;15.10;99.90
35111;DHT22;21290;50.158;8.658;2023-08-06T06:43:29;15.10;99.90
35111;DHT22;21290;50.158;8.658;2023-08-06T06:45:57;14.90;99.90
35111;DHT22;21290;50.158;8.658;2023-08-06T06:48:29;14.90;99.90
35111;DHT22;21290;50.158;8.658;2023-08-06T06:50:56;14.80;99.90
35111;DHT22;21290;50.158;8.658;2023-08-06T06:53:23;14.70;99.90
35111;DHT22;21290;50.158;8.658;2023-08-06T06:55:54;14.70;99.90
35111;DHT22;21290;50.158;8.658;2023-08-06T06:58:21;14.60;99.90
35111;DHT22;21290;50.158;8.658;2023-08-06T07:00:48;14.60;99.90
35111;DHT22;21290;50.158;8.658;2023-08-06T07:03:15;14.50;99.90
35111;DHT22;21290;50.158;8.658;2023-08-06T07:05:43;14.50;99.90
35111;DHT22;21290;50.158;8.658;2023-08-06T07:08:10;14.50;99.90
35111;DHT22;21290;50.158;8.658;2023-08-06T07:10:38;14.50;99.90
35111;DHT22;21290;50.158;8.658;2023-08-06T07:13:08;14.40;99.90
35111;DHT22;21290;50.158;8.658;2023-08-06T07:15:35;14.40;99.90
35111;DHT22;21290;50.158;8.658;2023-08-06T07:18:02;14.40;99.90
35111;DHT22;21290;50.158;8.658;2023-08-06T07:20:28;14.40;99.90
35111;DHT22;21290;50.158;8.658;2023-08-06T07:22:58;14.50;99.90
35111;DHT22;21290;50.158;8.658;2023-08-06T07:25:25;14.40;99.90
35111;DHT22;21290;50.158;8.658;2023-08-06T07:27:52;14.40;99.90
35111;DHT22;21290;50.158;8.658;2023-08-06T07:30:18;14.40;99.90
35111;DHT22;21290;50.158;8.658;2023-08-06T07:32:45;14.40;99.90
35111;DHT22;21290;50.158;8.658;2023-08-06T07:35:12;14.40;99.90
35111;DHT22;21290;50.158;8.658;2023-08-06T07:37:41;14.40;99.90
35111;DHT22;21290;50.158;8.658;2023-08-06T07:40:08;14.40;99.90
35111;DHT22;21290;50.158;8.658;2023-08-06T07:42:35;14.40;99.90
35111;DHT22;21290;50.158;8.658;2023-08-06T07:45:02;14.40;99.90
35111;DHT22;21290;50.158;8.658;2023-08-06T07:47:28;14.40;99.90
35111;DHT22;21290;50.158;8.658;2023-08-06T07:49:55;14.40;99.90
35111;DHT22;21290;50.158;8.658;2023-08-06T07:52:22;14.50;99.90
35111;DHT22;21290;50.158;8.658;2023-08-06T07:54:48;14.40;99.90
35111;DHT22;21290;50.158;8.658;2023-08-06T07:57:15;14.40;99.90
35111;DHT22;21290;50.158;8.658;2023-08-06T07:59:42;14.50;99.90
35111;DHT22;21290;50.158;8.658;2023-08-06T08:02:08;14.50;99.90
35111;DHT22;21290;50.158;8.658;2023-08-06T08:04:35;14.50;99.90
35111;DHT22;21290;50.158;8.658;2023-08-06T08:07:02;14.60;99.90
35111;DHT22;21290;50.158;8.658;2023-08-06T08:09:29;14.60;99.90
35111;DHT22;21290;50.158;8.658;2023-08-06T08:11:56;14.60;99.90
35111;DHT22;21290;50.158;8.658;2023-08-06T08:14:26;14.70;99.90
35111;DHT22;21290;50.158;8.658;2023-08-06T08:16:53;14.70;99.90
35111;DHT22;21290;50.158;8.658;2023-08-06T08:19:20;14.70;99.90
35111;DHT22;21290;50.158;8.658;2023-08-06T08:21:47;14.80;99.90
35111;DHT22;21290;50.158;8.658;2023-08-06T08:24:14;14.80;99.90
35111;DHT22;21290;50.158;8.658;2023-08-06T08:26:40;14.80;99.90
35111;DHT22;21290;50.158;8.658;2023-08-06T08:29:07;14.90;99.90
35111;DHT22;21290;50.158;8.658;2023-08-06T08:31:34;14.90;99.90
35111;DHT22;21290;50.158;8.658;2023-08-06T08:34:05;15.00;99.90
35111;DHT22;21290;50.158;8.658;2023-08-06T08:36:32;15.10;99.90
35111;DHT22;21290;50.158;8.658;2023-08-06T08:38:59;15.10;99.90
35111;DHT22;21290;50.158;8.658;2023-08-06T08:41:29;15.30;99.90
35111;DHT22;21290;50.158;8.658;2023-08-06T08:43:56;15.40;99.90
35111;DHT22;21290;50.158;8.658;2023-08-06T08:46:26;15.50;99.90
35111;DHT22;21290;50.158;8.658;2023-08-06T08:48:54;16.40;99.90
35111;DHT22;21290;50.158;8.658;2023-08-06T08:51:21;16.80;99.90
35111;DHT22;21290;50.158;8.658;2023-08-06T08:53:49;16.90;99.90
35111;DHT22;21290;50.158;8.658;2023-08-06T08:56:19;16.70;99.90
35111;DHT22;21290;50.158;8.658;2023-08-06T08:58:45;16.60;99.90
35111;DHT22;21290;50.158;8.658;2023-08-06T09:01:13;16.30;99.90
35111;DHT22;21290;50.158;8.658;2023-08-06T09:03:39;16.10;99.90
35111;DHT22;21290;50.158;8.658;2023-08-06T09:06:07;16.10;99.90
35111;DHT22;21290;50.158;8.658;2023-08-06T09:09:01;16.00;99.90
35111;DHT22;21290;50.158;8.658;2023-08-06T09:11:37;16.10;99.90
35111;DHT22;21290;50.158;8.658;2023-08-06T09:14:07;16.20;99.90
35111;DHT22;21290;50.158;8.658;2023-08-06T09:16:35;16.10;99.90
35111;DHT22;21290;50.158;8.658;2023-08-06T09:19:12;16.00;99.90
35111;DHT22;21290;50.158;8.658;2023-08-06T09:21:40;15.80;99.90
35111;DHT22;21290;50.158;8.658;2023-08-06T09:24:11;15.90;99.90
35111;DHT22;21290;50.158;8.658;2023-08-06T09:26:39;16.30;99.90
35111;DHT22;21290;50.158;8.658;2023-08-06T09:29:07;17.00;99.90
35111;DHT22;21290;50.158;8.658;2023-08-06T09:31:44;18.40;99.90
35111;DHT22;21290;50.158;8.658;2023-08-06T09:34:16;20.00;99.90
35111;DHT22;21290;50.158;8.658;2023-08-06T09:36:47;21.50;99.90
35111;DHT22;21290;50.158;8.658;2023-08-06T09:39:15;21.90;99.90
35111;DHT22;21290;50.158;8.658;2023-08-06T09:41:42;21.60;99.90
35111;DHT22;21290;50.158;8.658;2023-08-06T09:44:17;21.20;99.90
35111;DHT22;21290;50.158;8.658;2023-08-06T09:46:53;20.90;99.90
35111;DHT22;21290;50.158;8.658;2023-08-06T09:49:26;22.00;99.90
35111;DHT22;21290;50.158;8.658;2023-08-06T09:51:54;24.40;99.90
35111;DHT22;21290;50.158;8.658;2023-08-06T09:54:25;26.40;99.90
35111;DHT22;21290;50.158;8.658;2023-08-06T09:56:54;28.40;99.90
35111;DHT22;21290;50.158;8.658;2023-08-06T09:59:23;29.50;97.60
35111;DHT22;21290;50.158;8.658;2023-08-06T10:01:50;30.10;95.00
35111;DHT22;21290;50.158;8.658;2023-08-06T10:04:19;29.80;95.20
35111;DHT22;21290;50.158;8.658;2023-08-06T10:06:51;29.50;95.00
35111;DHT22;21290;50.158;8.658;2023-08-06T10:09:18;28.80;94.10
35111;DHT22;21290;50.158;8.658;2023-08-06T10:11:50;27.80;95.20
35111;DHT22;21290;50.158;8.658;2023-08-06T10:14:25;26.20;96.80
35111;DHT22;21290;50.158;8.658;2023-08-06T10:16:54;24.30;99.80
35111;DHT22;21290;50.158;8.658;2023-08-06T10:19:25;22.70;99.90
35111;DHT22;21290;50.158;8.658;2023-08-06T10:22:14;21.60;99.90
35111;DHT22;21290;50.158;8.658;2023-08-06T10:24:55;20.90;99.90
35111;DHT22;21290;50.158;8.658;2023-08-06T10:27:29;20.60;99.90
35111;DHT22;21290;50.158;8.658;2023-08-06T10:32:48;21.00;99.90
35111;DHT22;21290;50.158;8.658;2023-08-06T10:35:35;21.00;99.90
35111;DHT22;21290;50.158;8.658;2023-08-06T10:40:32;21.00;99.90
35111;DHT22;21290;50.158;8.658;2023-08-06T10:43:00;20.80;99.90
35111;DHT22;21290;50.158;8.658;2023-08-06T10:45:27;20.80;99.90
35111;DHT22;21290;50.158;8.658;2023-08-06T10:47:57;20.50;99.90
35111;DHT22;21290;50.158;8.658;2023-08-06T10:50:25;20.20;99.90
35111;DHT22;21290;50.158;8.658;2023-08-06T10:52:52;20.10;99.90
35111;DHT22;21290;50.158;8.658;2023-08-06T10:55:26;19.70;99.90
35111;DHT22;21290;50.158;8.658;2023-08-06T10:57:55;19.50;99.90
35111;DHT22;21290;50.158;8.658;2023-08-06T11:00:23;19.50;99.90
35111;DHT22;21290;50.158;8.658;2023-08-06T11:02:52;20.00;99.90
35111;DHT22;21290;50.158;8.658;2023-08-06T11:05:19;21.10;99.90
35111;DHT22;21290;50.158;8.658;2023-08-06T11:07:46;21.50;99.90
35111;DHT22;21290;50.158;8.658;2023-08-06T11:10:14;21.50;99.90
35111;DHT22;21290;50.158;8.658;2023-08-06T11:12:41;21.50;99.90
35111;DHT22;21290;50.158;8.658;2023-08-06T11:15:08;21.40;99.90
35111;DHT22;21290;50.158;8.658;2023-08-06T11:17:35;21.00;99.90
35111;DHT22;21290;50.158;8.658;2023-08-06T11:20:03;20.80;99.90
35111;DHT22;21290;50.158;8.658;2023-08-06T11:22:31;21.20;99.90
35111;DHT22;21290;50.158;8.658;2023-08-06T11:24:58;21.90;99.90
35111;DHT22;21290;50.158;8.658;2023-08-06T11:27:27;22.30;99.90
35111;DHT22;21290;50.158;8.658;2023-08-06T11:29:57;23.50;99.90
35111;DHT22;21290;50.158;8.658;2023-08-06T11:32:23;24.90;99.90
35111;DHT22;21290;50.158;8.658;2023-08-06T11:34:52;26.10;99.90
35111;DHT22;21290;50.158;8.658;2023-08-06T11:37:21;26.40;99.90
35111;DHT22;21290;50.158;8.658;2023-08-06T11:39:49;26.90;99.90
35111;DHT22;21290;50.158;8.658;2023-08-06T11:42:16;27.20;98.60
35111;DHT22;21290;50.158;8.658;2023-08-06T11:44:43;27.40;98.20
35111;DHT22;21290;50.158;8.658;2023-08-06T11:47:15;27.60;97.90
35111;DHT22;21290;50.158;8.658;2023-08-06T11:49:47;26.60;98.40
35111;DHT22;21290;50.158;8.658;2023-08-06T11:52:21;25.50;99.90
35111;DHT22;21290;50.158;8.658;2023-08-06T11:55:05;24.30;99.90
35111;DHT22;21290;50.158;8.658;2023-08-06T11:57:39;22.70;99.90
35111;DHT22;21290;50.158;8.658;2023-08-06T12:00:11;21.00;99.90
35111;DHT22;21290;50.158;8.658;2023-08-06T12:02:42;19.80;99.90
35111;DHT22;21290;50.158;8.658;2023-08-06T12:05:16;19.00;99.90
35111;DHT22;21290;50.158;8.658;2023-08-06T12:07:46;18.60;99.90
35111;DHT22;21290;50.158;8.658;2023-08-06T12:10:13;18.20;99.90
35111;DHT22;21290;50.158;8.658;2023-08-06T12:12:40;17.80;99.90
35111;DHT22;21290;50.158;8.658;2023-08-06T12:15:08;17.50;99.90
35111;DHT22;21290;50.158;8.658;2023-08-06T12:17:35;17.30;99.90
35111;DHT22;21290;50.158;8.658;2023-08-06T12:20:03;17.00;99.90
35111;DHT22;21290;50.158;8.658;2023-08-06T12:22:34;16.80;99.90
35111;DHT22;21290;50.158;8.658;2023-08-06T12:25:02;16.60;99.90
35111;DHT22;21290;50.158;8.658;2023-08-06T12:27:30;16.40;99.90
35111;DHT22;21290;50.158;8.658;2023-08-06T12:29:56;16.20;99.90
35111;DHT22;21290;50.158;8.658;2023-08-06T12:32:23;16.10;99.90
35111;DHT22;21290;50.158;8.658;2023-08-06T12:34:50;16.00;99.90
35111;DHT22;21290;50.158;8.658;2023-08-06T12:37:19;16.00;99.90
35111;DHT22;21290;50.158;8.658;2023-08-06T12:39:46;16.00;99.90
35111;DHT22;21290;50.158;8.658;2023-08-06T12:42:13;16.10;99.90
35111;DHT22;21290;50.158;8.658;2023-08-06T12:44:40;16.10;99.90
35111;DHT22;21290;50.158;8.658;2023-08-06T12:47:09;16.10;99.90
35111;DHT22;21290;50.158;8.658;2023-08-06T12:49:36;16.10;99.90
35111;DHT22;21290;50.158;8.658;2023-08-06T12:52:03;16.10;99.90
35111;DHT22;21290;50.158;8.658;2023-08-06T12:54:32;16.10;99.90
35111;DHT22;21290;50.158;8.658;2023-08-06T12:57:06;16.10;99.90
35111;DHT22;21290;50.158;8.658;2023-08-06T12:59:33;16.10;99.90
35111;DHT22;21290;50.158;8.658;2023-08-06T13:02:00;16.00;99.90
35111;DHT22;21290;50.158;8.658;2023-08-06T13:04:27;15.90;99.90
35111;DHT22;21290;50.158;8.658;2023-08-06T13:06:54;15.80;99.90
35111;DHT22;21290;50.158;8.658;2023-08-06T13:09:21;15.80;99.90
35111;DHT22;21290;50.158;8.658;2023-08-06T13:11:47;15.80;99.90
35111;DHT22;21290;50.158;8.658;2023-08-06T13:14:16;15.80;99.90
35111;DHT22;21290;50.158;8.658;2023-08-06T13:16:43;15.70;99.90
35111;DHT22;21290;50.158;8.658;2023-08-06T13:19:11;15.70;99.90
35111;DHT22;21290;50.158;8.658;2023-08-06T13:24:16;15.60;99.90
35111;DHT22;21290;50.158;8.658;2023-08-06T13:26:43;15.50;99.90
35111;DHT22;21290;50.158;8.658;2023-08-06T13:29:09;15.60;99.90
35111;DHT22;21290;50.158;8.658;2023-08-06T13:31:38;15.60;99.90
35111;DHT22;21290;50.158;8.658;2023-08-06T13:34:04;15.60;99.90
35111;DHT22;21290;50.158;8.658;2023-08-06T13:36:31;15.50;99.90
35111;DHT22;21290;50.158;8.658;2023-08-06T13:38:58;15.60;99.90
35111;DHT22;21290;50.158;8.658;2023-08-06T13:41:25;15.50;99.90
35111;DHT22;21290;50.158;8.658;2023-08-06T13:43:51;15.60;99.90
35111;DHT22;21290;50.158;8.658;2023-08-06T13:46:18;15.60;99.90
35111;DHT22;21290;50.158;8.658;2023-08-06T13:48:48;15.60;99.90
35111;DHT22;21290;50.158;8.658;2023-08-06T13:51:18;15.60;99.90
35111;DHT22;21290;50.158;8.658;2023-08-06T13:53:45;15.60;99.90
35111;DHT22;21290;50.158;8.658;2023-08-06T13:56:12;15.60;99.90
35111;DHT22;21290;50.158;8.658;2023-08-06T13:58:39;15.50;99.90
35111;DHT22;21290;50.158;8.658;2023-08-06T14:01:06;15.60;99.90
35111;DHT22;21290;50.158;8.658;2023-08-06T14:03:33;15.60;99.90
35111;DHT22;21290;50.158;8.658;2023-08-06T14:06:00;15.60;99.90
35111;DHT22;21290;50.158;8.658;2023-08-06T14:08:27;15.50;99.90
35111;DHT22;21290;50.158;8.658;2023-08-06T14:10:54;15.60;99.90
35111;DHT22;21290;50.158;8.658;2023-08-06T14:13:22;15.60;99.90
35111;DHT22;21290;50.158;8.658;2023-08-06T14:15:49;15.70;99.90
35111;DHT22;21290;50.158;8.658;2023-08-06T14:18:16;15.70;99.90
35111;DHT22;21290;50.158;8.658;2023-08-06T14:20:43;15.70;99.90
35111;DHT22;21290;50.158;8.658;2023-08-06T14:23:10;15.70;99.90
35111;DHT22;21290;50.158;8.658;2023-08-06T14:25:38;15.80;99.90
35111;DHT22;21290;50.158;8.658;2023-08-06T14:28:05;15.80;99.90
35111;DHT22;21290;50.158;8.658;2023-08-06T14:30:33;15.90;99.90
35111;DHT22;21290;50.158;8.658;2023-08-06T14:33:00;15.90;99.90
35111;DHT22;21290;50.158;8.658;2023-08-06T14:35:47;16.00;99.90
35111;DHT22;21290;50.158;8.658;2023-08-06T14:38:14;16.10;99.90
35111;DHT22;21290;50.158;8.658;2023-08-06T14:40:40;16.10;99.90
35111;DHT22;21290;50.158;8.658;2023-08-06T14:43:07;16.20;99.90
35111;DHT22;21290;50.158;8.658;2023-08-06T14:45:38;16.30;99.90
35111;DHT22;21290;50.158;8.658;2023-08-06T14:48:06;16.30;99.90
35111;DHT22;21290;50.158;8.658;2023-08-06T14:50:32;16.40;99.90
35111;DHT22;21290;50.158;8.658;2023-08-06T14:52:59;16.50;99.90
35111;DHT22;21290;50.158;8.658;2023-08-06T14:55:31;16.50;99.90
35111;DHT22;21290;50.158;8.658;2023-08-06T14:58:00;16.60;99.90
35111;DHT22;21290;50.158;8.658;2023-08-06T15:00:27;16.60;99.90
35111;DHT22;21290;50.158;8.658;2023-08-06T15:02:54;16.70;99.90
35111;DHT22;21290;50.158;8.658;2023-08-06T15:05:21;16.70;99.90
35111;DHT22;21290;50.158;8.658;2023-08-06T15:07:48;16.80;99.90
35111;DHT22;21290;50.158;8.658;2023-08-06T15:10:15;16.90;99.90
35111;DHT22;21290;50.158;8.658;2023-08-06T15:12:45;16.90;99.90
35111;DHT22;21290;50.158;8.658;2023-08-06T15:15:11;16.90;99.90
35111;DHT22;21290;50.158;8.658;2023-08-06T15:17:38;16.90;99.90
35111;DHT22;21290;50.158;8.658;2023-08-06T15:20:05;16.90;99.90
35111;DHT22;21290;50.158;8.658;2023-08-06T15:22:32;16.90;99.90
35111;DHT22;21290;50.158;8.658;2023-08-06T15:25:02;16.80;99.90
35111;DHT22;21290;50.158;8.658;2023-08-06T15:27:30;16.80;99.90
35111;DHT22;21290;50.158;8.658;2023-08-06T15:29:58;16.80;99.90
35111;DHT22;21290;50.158;8.658;2023-08-06T15:32:24;16.80;99.90
35111;DHT22;21290;50.158;8.658;2023-08-06T15:34:51;16.70;99.90
35111;DHT22;21290;50.158;8.658;2023-08-06T15:37:18;16.70;99.90
35111;DHT22;21290;50.158;8.658;2023-08-06T15:39:45;16.60;99.90
35111;DHT22;21290;50.158;8.658;2023-08-06T15:42:12;16.50;99.90
35111;DHT22;21290;50.158;8.658;2023-08-06T15:44:39;16.50;99.90